Time;durP1;ratioP1;P1;durP2;ratioP2;P2;SDS_P1;SDS_P2;PMS_P1;PMS_P2;Temp;Humidity;BMP_temperature;BMP_pressure;BME280_temperature;BME280_humidity;BME280_pressure;Samples;Min_cycle;Max_cycle;Signal;HPM_P1;HPM_P2
2023/01/11 05:32:32;;;;;;;;;0.00;0.00;;;;;12.33;82.74;100900.75;5016130;28;45384;-77
2023/01/11 05:34:57;;;;;;;;;0.00;0.00;;;;;12.30;82.80;100904.44;5013319;28;45389;-78
2023/01/11 05:37:22;;;;;;;;;0.00;0.00;;;;;12.34;83.66;100930.22;4996249;28;46516;-78
2023/01/11 05:39:48;;;;;;;;;1.50;0.00;;;;;12.32;83.43;100940.19;5014171;28;45855;-78
2023/01/11 05:42:13;;;;;;;;;2.00;0.00;;;;;12.17;83.00;100919.44;5013924;28;45521;-77
2023/01/11 05:47:22;;;;;;;;;0.00;0.00;;;;;12.34;83.50;100958.91;5014050;28;45336;-78
2023/01/11 05:49:48;;;;;;;;;0.00;0.00;;;;;12.23;83.25;100956.78;5013815;28;45270;-79
2023/01/11 05:52:13;;;;;;;;;1.00;0.00;;;;;12.28;83.15;100962.78;5014267;28;45224;-78
2023/01/11 05:54:38;;;;;;;;;0.00;0.00;;;;;12.13;83.74;100929.47;5013814;28;45576;-83
2023/01/11 05:57:09;;;;;;;;;0.00;0.00;;;;;12.10;83.42;100924.25;4999080;28;47308;-80
2023/01/11 05:59:34;;;;;;;;;2.00;0.00;;;;;12.16;83.44;100951.78;5016012;28;45534;-79
2023/01/11 06:02:00;;;;;;;;;0.00;0.00;;;;;12.25;84.03;100975.53;5015995;28;45448;-79
2023/01/11 06:04:26;;;;;;;;;0.00;0.00;;;;;12.26;84.01;100979.94;5020775;28;45220;-79
2023/01/11 06:06:51;;;;;;;;;2.25;0.00;;;;;12.20;83.39;100973.03;5018525;28;45304;-79
2023/01/11 06:09:16;;;;;;;;;0.75;0.75;;;;;12.18;83.13;100977.63;5018756;28;46278;-79
2023/01/11 06:11:42;;;;;;;;;2.25;1.00;;;;;12.16;83.51;100967.91;5017214;28;45393;-81
2023/01/11 06:14:07;;;;;;;;;0.00;0.00;;;;;12.04;83.35;100947.88;5018918;28;45329;-81
2023/01/11 06:16:33;;;;;;;;;0.50;0.00;;;;;12.19;82.58;100984.75;5020449;28;45248;-78
2023/01/11 06:18:58;;;;;;;;;3.50;0.25;;;;;12.17;82.40;100985.75;5022308;28;46589;-76
2023/01/11 06:21:24;;;;;;;;;0.00;0.00;;;;;12.12;82.38;100981.50;5020395;28;45250;-77
2023/01/11 06:23:49;;;;;;;;;0.00;0.00;;;;;12.20;82.20;101001.75;5020920;28;45358;-79
2023/01/11 06:26:17;;;;;;;;;0.00;0.00;;;;;11.96;82.57;100966.19;5020355;28;45649;-80
2023/01/11 06:28:43;;;;;;;;;1.00;1.00;;;;;12.22;82.55;101003.41;5000326;28;46279;-75
2023/01/11 06:31:08;;;;;;;;;1.00;1.00;;;;;12.21;82.42;101006.19;5018019;28;45339;-78
2023/01/11 06:33:35;;;;;;;;;1.00;1.00;;;;;12.23;82.78;101005.16;5017542;28;45422;-74
2023/01/11 06:36:06;;;;;;;;;1.00;1.00;;;;;12.17;82.30;101004.56;5006657;28;45443;-81
2023/01/11 06:38:31;;;;;;;;;0.00;0.00;;;;;12.19;82.42;101011.63;5017695;28;46680;-78
2023/01/11 06:40:59;;;;;;;;;5.00;0.50;;;;;12.25;82.79;101029.28;5018283;28;45599;-78
2023/01/11 06:43:26;;;;;;;;;0.25;0.25;;;;;11.97;82.75;100992.97;5018447;28;45468;-78
2023/01/11 06:45:51;;;;;;;;;1.00;1.00;;;;;12.18;83.18;101034.06;5018214;28;45286;-79
2023/01/11 06:48:18;;;;;;;;;1.00;1.00;;;;;12.20;83.26;101048.31;5016933;28;46113;-77
2023/01/11 06:50:50;;;;;;;;;1.00;1.00;;;;;12.23;83.27;101053.56;5018207;28;45565;-76
2023/01/11 06:53:16;;;;;;;;;2.00;1.00;;;;;12.20;82.99;101058.19;5017664;28;45452;-78
2023/01/11 06:55:41;;;;;;;;;2.75;0.00;;;;;12.12;82.43;101059.44;5015705;28;45622;-75
2023/01/11 06:58:07;;;;;;;;;1.00;1.00;;;;;12.06;83.34;101054.34;5019855;28;45495;-76
2023/01/11 07:00:32;;;;;;;;;2.50;1.00;;;;;12.06;82.80;101065.09;5018871;28;45305;-79
2023/01/11 07:03:05;;;;;;;;;1.50;0.00;;;;;11.94;83.49;101046.84;5018435;28;45312;-77
2023/01/11 07:05:33;;;;;;;;;1.00;1.00;;;;;12.07;83.30;101057.91;5016610;28;45560;-76
2023/01/11 07:07:58;;;;;;;;;3.00;0.25;;;;;12.12;83.56;101054.06;5016908;28;45382;-75
2023/01/11 07:10:24;;;;;;;;;1.00;0.00;;;;;12.16;83.83;101065.53;5017198;28;45258;-78
2023/01/11 07:12:50;;;;;;;;;1.25;1.00;;;;;12.04;83.34;101053.53;5017131;28;45231;-77
2023/01/11 07:15:16;;;;;;;;;0.00;0.00;;;;;12.05;83.25;101051.72;5016198;28;45523;-77
2023/01/11 07:17:41;;;;;;;;;2.00;1.00;;;;;12.08;83.20;101048.88;5016438;28;45960;-78
2023/01/11 07:20:07;;;;;;;;;1.25;0.00;;;;;12.12;83.12;101072.88;5016467;28;45411;-77
2023/01/11 07:22:34;;;;;;;;;6.00;1.00;;;;;12.07;83.02;101066.84;5017211;28;45268;-80
2023/01/11 07:25:00;;;;;;;;;1.50;0.00;;;;;12.14;83.30;101072.81;5016987;28;45546;-78
2023/01/11 07:27:25;;;;;;;;;1.00;1.00;;;;;12.15;82.69;101081.75;5016538;28;46087;-78
2023/01/11 07:29:52;;;;;;;;;2.00;2.00;;;;;12.10;82.25;101071.19;5016811;28;45342;-78
2023/01/11 07:32:18;;;;;;;;;2.75;1.25;;;;;11.96;82.09;101065.59;5016746;28;45344;-77
2023/01/11 07:34:43;;;;;;;;;4.50;2.00;;;;;12.05;82.96;101086.66;5016247;28;45673;-81
2023/01/11 07:37:09;;;;;;;;;3.50;1.00;;;;;12.02;82.02;101089.47;5015757;28;46164;-78
2023/01/11 07:39:35;;;;;;;;;1.00;1.00;;;;;11.99;82.01;101095.84;5016211;28;45438;-79
2023/01/11 07:44:44;;;;;;;;;3.75;1.00;;;;;11.93;81.41;101103.34;5016051;28;45302;-78
2023/01/11 07:47:09;;;;;;;;;2.00;0.00;;;;;11.84;82.09;101115.38;5015997;28;45257;-77
2023/01/11 07:49:34;;;;;;;;;0.00;0.00;;;;;11.80;82.06;101116.47;5016019;28;45272;-77
2023/01/11 07:52:00;;;;;;;;;3.00;2.00;;;;;11.82;82.16;101144.16;4994561;28;45427;-78
2023/01/11 07:54:25;;;;;;;;;0.75;0.75;;;;;11.71;82.24;101133.84;4996830;28;46194;-77
2023/01/11 07:56:52;;;;;;;;;2.25;0.00;;;;;11.58;81.30;101119.19;5016116;28;46016;-77
2023/01/11 07:59:17;;;;;;;;;3.50;2.00;;;;;11.53;82.15;101120.34;5015840;28;45402;-77
2023/01/11 08:01:43;;;;;;;;;2.00;0.25;;;;;11.60;81.43;101133.44;5016453;28;45374;-77
2023/01/11 08:04:11;;;;;;;;;8.00;0.00;;;;;11.65;81.36;101160.94;5015792;28;45392;-78
2023/01/11 08:06:40;;;;;;;;;1.00;1.00;;;;;11.56;81.70;101141.69;5015472;28;46521;-78
2023/01/11 08:09:07;;;;;;;;;2.00;1.00;;;;;11.68;82.03;101168.88;5015406;28;45468;-78
2023/01/11 08:17:03;;;;;;;;;2.00;0.00;;;;;11.76;81.03;101190.06;5015498;28;45655;-78
2023/01/11 08:19:28;;;;;;;;;1.00;0.00;;;;;11.73;80.95;101190.19;4998389;28;45390;-77
2023/01/11 08:21:54;;;;;;;;;3.75;0.00;;;;;11.66;80.56;101196.72;4998061;28;45443;-78
2023/01/11 08:24:20;;;;;;;;;5.00;0.25;;;;;11.67;81.17;101198.47;5015888;28;45463;-77
2023/01/11 08:26:45;;;;;;;;;2.00;0.00;;;;;11.68;80.57;101201.09;4997169;28;46437;-77
2023/01/11 08:29:11;;;;;;;;;1.75;1.00;;;;;11.68;81.18;101198.41;5015338;28;45231;-76
2023/01/11 08:31:36;;;;;;;;;2.25;1.00;;;;;11.64;80.68;101204.00;5015687;28;45309;-78
2023/01/11 08:34:01;;;;;;;;;3.75;1.00;;;;;11.52;79.98;101208.06;5016352;28;45774;-78
2023/01/11 08:36:27;;;;;;;;;2.00;1.00;;;;;11.64;80.37;101230.88;5006571;28;46206;-78
2023/01/11 08:38:54;;;;;;;;;4.75;4.75;;;;;11.54;80.20;101214.25;5017398;28;45771;-78
2023/01/11 08:41:20;;;;;;;;;3.25;3.25;;;;;11.60;79.81;101224.72;5016626;28;45305;-78
2023/01/11 08:43:46;;;;;;;;;2.00;2.00;;;;;11.56;79.82;101228.50;5016271;28;45557;-77
2023/01/11 08:46:11;;;;;;;;;1.50;1.00;;;;;11.52;79.77;101212.56;4997246;28;46188;-76
2023/01/11 08:48:36;;;;;;;;;4.75;1.50;;;;;11.62;80.02;101241.66;5015096;28;45329;-78
2023/01/11 08:51:02;;;;;;;;;2.25;0.25;;;;;11.54;79.73;101237.56;5015324;28;45299;-78
2023/01/11 08:53:27;;;;;;;;;2.50;2.50;;;;;11.53;79.75;101227.75;5015230;28;45415;-78
2023/01/11 08:55:53;;;;;;;;;2.00;2.00;;;;;11.41;79.23;101212.13;5014865;28;45431;-78
2023/01/11 08:58:19;;;;;;;;;2.00;1.50;;;;;11.63;78.73;101253.28;5015059;28;45392;-78
2023/01/11 09:00:45;;;;;;;;;1.75;1.75;;;;;11.65;78.75;101249.56;5014935;28;45294;-77
2023/01/11 09:03:13;;;;;;;;;4.75;3.00;;;;;11.47;78.44;101220.84;4996991;28;47277;-76
2023/01/11 09:05:40;;;;;;;;;7.50;2.25;;;;;11.68;78.63;101254.81;5014311;28;46343;-77
2023/01/11 09:08:06;;;;;;;;;3.00;3.00;;;;;11.66;78.07;101251.31;4996862;28;45355;-77
2023/01/11 09:10:32;;;;;;;;;5.00;3.50;;;;;11.75;78.16;101266.22;4996555;28;45347;-78
2023/01/11 09:12:58;;;;;;;;;3.75;2.75;;;;;11.70;77.05;101252.94;5014893;28;45247;-77
2023/01/11 09:15:24;;;;;;;;;2.50;2.00;;;;;11.74;76.31;101269.78;5014485;28;45419;-78
2023/01/11 09:17:51;;;;;;;;;5.00;2.25;;;;;11.74;76.58;101275.16;5015013;28;45577;-77
2023/01/11 09:20:18;;;;;;;;;4.00;2.00;;;;;11.81;76.60;101283.91;5014459;28;45416;-78
2023/01/11 09:22:51;;;;;;;;;1.25;1.25;;;;;11.82;75.01;101289.22;5014561;28;45245;-78
2023/01/11 09:25:18;;;;;;;;;2.50;2.00;;;;;11.79;75.09;101308.13;5014512;28;47222;-78
2023/01/11 09:27:49;;;;;;;;;2.25;1.75;;;;;11.73;74.46;101311.06;5014343;28;45393;-79
2023/01/11 09:30:17;;;;;;;;;3.75;2.50;;;;;11.62;74.75;101308.81;5014725;28;45554;-78
2023/01/11 09:32:43;;;;;;;;;1.25;0.00;;;;;11.60;73.90;101310.66;5014220;28;45622;-78
2023/01/11 09:35:09;;;;;;;;;3.00;2.00;;;;;11.55;74.61;101290.31;5008806;28;46379;-79
2023/01/11 09:37:40;;;;;;;;;2.50;1.00;;;;;11.68;74.17;101304.97;5008690;28;45492;-77
2023/01/11 09:40:13;;;;;;;;;2.25;1.75;;;;;11.72;74.23;101331.66;5014609;28;45364;-78
2023/01/11 09:42:39;;;;;;;;;2.75;0.00;;;;;11.53;72.78;101317.22;5014169;28;45400;-75
2023/01/11 09:45:11;;;;;;;;;1.00;1.00;;;;;11.54;72.49;101331.53;5014319;28;46203;-78
2023/01/11 09:48:03;;;;;;;;;0.25;0.25;;;;;11.52;72.69;101328.91;5014368;28;45418;-79
2023/01/11 09:50:40;;;;;;;;;0.75;0.75;;;;;11.56;73.47;101338.59;5012584;28;45306;-78
2023/01/11 09:53:08;;;;;;;;;2.25;1.00;;;;;11.31;71.85;101329.78;5002428;28;45322;-77
2023/01/11 09:55:45;;;;;;;;;1.75;1.75;;;;;11.30;72.48;101334.28;4996067;28;46164;-78
2023/01/11 09:58:14;;;;;;;;;1.00;1.00;;;;;11.39;72.34;101365.25;4996665;28;45431;-77
2023/01/11 10:00:49;;;;;;;;;2.00;0.25;;;;;11.24;72.15;101357.78;5014504;28;45183;-78
2023/01/11 10:03:24;;;;;;;;;1.00;1.00;;;;;11.25;72.28;101365.78;5014145;28;45440;-79
2023/01/11 10:06:41;;;;;;;;;3.00;1.75;;;;;11.35;72.88;101363.59;5013827;28;45999;-79
2023/01/11 10:09:32;;;;;;;;;0.75;0.75;;;;;11.41;73.23;101368.72;4952940;28;45674;-78
2023/01/11 10:12:51;;;;;;;;;2.00;2.00;;;;;11.50;72.18;101380.91;4945546;28;45524;-77
2023/01/11 10:15:33;;;;;;;;;1.00;0.50;;;;;11.47;72.54;101376.56;4970846;28;45661;-78
2023/01/11 10:18:42;;;;;;;;;3.00;1.00;;;;;11.41;71.84;101349.06;4973101;28;46062;-77
2023/01/11 10:21:14;;;;;;;;;1.00;1.00;;;;;11.63;71.45;101366.94;5007269;28;45279;-79
2023/01/11 10:23:54;;;;;;;;;0.00;0.00;;;;;11.57;70.70;101367.19;5016048;28;45206;-78
2023/01/11 10:26:31;;;;;;;;;4.00;1.00;;;;;11.51;71.04;101372.81;5016350;28;45630;-80
2023/01/11 10:29:13;;;;;;;;;1.00;1.00;;;;;11.52;71.07;101373.69;5013967;28;45969;-78
2023/01/11 10:31:58;;;;;;;;;3.00;0.00;;;;;11.52;70.77;101374.56;4992221;28;45434;-78
2023/01/11 10:34:58;;;;;;;;;0.75;0.75;;;;;11.36;71.38;101354.63;4976062;28;46106;-77
2023/01/11 10:37:45;;;;;;;;;0.75;0.75;;;;;11.38;71.63;101379.59;4991475;28;45470;-77
2023/01/11 10:43:21;;;;;;;;;1.00;1.00;;;;;11.48;71.32;101381.00;4993636;28;45256;-77
2023/01/11 10:46:16;;;;;;;;;1.25;0.25;;;;;11.45;71.83;101369.50;4988176;28;45546;-78
2023/01/11 10:48:44;;;;;;;;;1.50;1.50;;;;;11.38;71.94;101375.13;4992236;28;45515;-77
2023/01/11 10:51:31;;;;;;;;;1.75;1.00;;;;;11.49;72.08;101369.28;4994716;28;46123;-78
2023/01/11 10:54:18;;;;;;;;;3.25;1.75;;;;;11.58;72.05;101397.59;4996872;28;45522;-78
2023/01/11 10:57:12;;;;;;;;;2.75;2.00;;;;;11.27;71.81;101331.69;4979006;28;45453;-77
2023/01/11 11:00:04;;;;;;;;;2.00;1.00;;;;;11.60;71.28;101396.59;4997141;28;46114;-78
2023/01/11 11:02:38;;;;;;;;;2.00;2.00;;;;;11.70;71.33;101400.69;4996507;28;45368;-77
2023/01/11 11:05:51;;;;;;;;;1.25;1.25;;;;;11.79;70.89;101398.59;4996760;28;45455;-77
2023/01/11 11:08:29;;;;;;;;;1.00;1.00;;;;;11.92;70.85;101402.50;4963519;28;45469;-78
2023/01/11 11:11:01;;;;;;;;;3.00;1.25;;;;;11.89;70.43;101381.16;4978632;28;46274;-78
2023/01/11 11:13:43;;;;;;;;;1.25;1.25;;;;;12.02;69.72;101388.66;4978779;28;47947;-76
2023/01/11 11:16:09;;;;;;;;;3.50;2.25;;;;;12.23;69.61;101421.84;4996755;28;45411;-78
2023/01/11 11:18:34;;;;;;;;;2.75;2.00;;;;;12.17;68.74;101405.06;4996304;28;45434;-77
2023/01/11 11:21:08;;;;;;;;;3.75;2.00;;;;;12.17;68.51;101389.81;4996253;28;45555;-77
2023/01/11 11:23:35;;;;;;;;;2.00;2.00;;;;;12.51;67.38;101378.47;4997801;28;45600;-76
2023/01/11 11:26:03;;;;;;;;;3.00;1.00;;;;;13.36;64.96;101393.44;5000438;28;45381;-79
2023/01/11 11:28:31;;;;;;;;;1.50;1.00;;;;;14.34;62.50;101400.31;5003143;28;45218;-77
2023/01/11 11:31:03;;;;;;;;;4.50;2.00;;;;;14.87;58.28;101413.75;5007500;28;45413;-77
2023/01/11 11:33:36;;;;;;;;;2.00;2.00;;;;;15.06;58.00;101383.91;5024081;28;45234;-80
2023/01/11 11:36:07;;;;;;;;;2.75;1.00;;;;;15.26;57.20;101405.31;5014585;28;45271;-79
2023/01/11 11:39:01;;;;;;;;;1.00;1.00;;;;;14.99;56.52;101396.00;5020278;28;45322;-79
2023/01/11 11:41:26;;;;;;;;;2.00;2.00;;;;;14.75;57.93;101412.56;5003793;28;45634;-78
2023/01/11 11:44:13;;;;;;;;;2.00;2.00;;;;;14.61;58.68;101422.34;5010179;28;45547;-75
2023/01/11 11:46:39;;;;;;;;;1.75;1.00;;;;;14.43;58.79;101416.06;5015709;28;45546;-80
2023/01/11 11:49:16;;;;;;;;;4.75;1.75;;;;;14.21;58.70;101416.22;5014627;28;45511;-79
2023/01/11 11:51:44;;;;;;;;;1.00;1.00;;;;;14.03;59.82;101401.00;5015742;28;45529;-80
2023/01/11 11:54:22;;;;;;;;;5.00;0.00;;;;;14.00;60.04;101420.88;5015775;28;46303;-80
2023/01/11 11:56:48;;;;;;;;;2.50;2.50;;;;;13.90;60.31;101424.97;5017584;28;45506;-79
2023/01/11 11:59:19;;;;;;;;;2.00;1.75;;;;;13.77;60.58;101428.34;5013022;28;45608;-78
2023/01/11 12:01:53;;;;;;;;;4.50;1.50;;;;;13.50;61.04;101412.56;5011284;28;45258;-86
2023/01/11 12:04:31;;;;;;;;;3.00;2.00;;;;;13.36;60.56;101397.97;5021175;28;45677;-78
2023/01/11 12:07:22;;;;;;;;;4.00;2.25;;;;;13.60;61.46;101424.66;5021526;28;45788;-81
2023/01/11 12:10:20;;;;;;;;;2.00;2.00;;;;;13.61;61.32;101430.88;5009412;28;45378;-79
2023/01/11 12:12:58;;;;;;;;;2.75;1.25;;;;;13.56;61.53;101422.16;5024831;28;45377;-78
2023/01/11 12:15:32;;;;;;;;;1.00;1.00;;;;;13.38;60.03;101412.25;5016084;28;47586;-85
2023/01/11 12:18:22;;;;;;;;;1.00;1.00;;;;;13.56;59.07;101419.47;5001566;28;45416;-81
2023/01/11 12:20:48;;;;;;;;;0.75;0.75;;;;;13.19;58.89;101387.97;5005985;28;45353;-82
2023/01/11 12:23:18;;;;;;;;;1.00;1.00;;;;;13.53;59.95;101450.09;5015439;28;45247;-81
2023/01/11 12:26:14;;;;;;;;;2.25;1.25;;;;;13.48;60.44;101432.41;4997771;28;47353;-81
2023/01/11 12:28:56;;;;;;;;;1.50;1.00;;;;;13.54;60.37;101427.59;5015205;28;45483;-80
2023/01/11 12:31:30;;;;;;;;;4.25;2.00;;;;;13.37;59.02;101427.53;5007715;28;45349;-79
2023/01/11 12:34:22;;;;;;;;;1.75;0.25;;;;;13.36;58.82;101428.47;5015585;28;45047;-79
2023/01/11 12:37:09;;;;;;;;;2.50;2.00;;;;;13.40;59.82;101421.13;5010490;28;45295;-77
2023/01/11 12:39:50;;;;;;;;;3.50;1.00;;;;;13.23;59.16;101403.94;5021449;28;45452;-78
2023/01/11 12:42:53;;;;;;;;;0.75;0.75;;;;;13.18;59.12;101426.66;5019950;28;45518;-78
2023/01/11 12:45:31;;;;;;;;;3.75;1.00;;;;;13.25;60.41;101429.00;5019836;28;46023;-78
2023/01/11 12:48:30;;;;;;;;;2.00;1.00;;;;;13.36;58.72;101441.06;5019599;28;45770;-78
2023/01/11 12:51:20;;;;;;;;;3.00;1.00;;;;;13.36;58.68;101439.25;5001414;28;45527;-78
2023/01/11 12:54:07;;;;;;;;;1.00;1.00;;;;;13.37;59.26;101424.84;5018403;28;45474;-79
2023/01/11 12:57:10;;;;;;;;;1.50;0.00;;;;;13.31;58.61;101429.63;5019705;28;45282;-79
2023/01/11 12:59:57;;;;;;;;;3.75;1.25;;;;;13.32;59.02;101426.00;5020119;28;45460;-78
2023/01/11 13:02:34;;;;;;;;;1.00;0.00;;;;;13.49;59.20;101432.34;5019993;28;45225;-78
2023/01/11 13:05:28;;;;;;;;;3.50;1.25;;;;;13.46;58.67;101420.84;5019436;28;45826;-79
2023/01/11 13:07:59;;;;;;;;;5.75;1.00;;;;;13.46;58.29;101427.09;5021205;28;45615;-79
2023/01/11 13:11:33;;;;;;;;;3.00;1.00;;;;;13.47;58.69;101422.59;5006130;28;47702;-77
2023/01/11 13:14:32;;;;;;;;;4.00;1.00;;;;;13.45;58.32;101405.63;5010101;28;45673;-79
2023/01/11 13:17:25;;;;;;;;;3.75;1.00;;;;;13.61;58.66;101436.28;5015768;28;45437;-78
2023/01/11 13:20:09;;;;;;;;;1.00;1.00;;;;;13.65;57.78;101424.41;5023393;28;45661;-77
2023/01/11 13:22:39;;;;;;;;;5.50;1.25;;;;;13.52;57.83;101409.78;5021870;28;45366;-79
2023/01/11 13:25:17;;;;;;;;;3.25;0.50;;;;;13.40;57.00;101411.22;5004978;28;46102;-77
2023/01/11 13:27:45;;;;;;;;;2.50;1.75;;;;;13.27;57.66;101401.97;5020591;28;45305;-78
2023/01/11 13:30:14;;;;;;;;;3.25;1.00;;;;;13.58;57.55;101445.38;5020572;28;45679;-77
2023/01/11 13:32:43;;;;;;;;;8.00;0.50;;;;;13.48;56.21;101440.50;5020862;28;46077;-78
2023/01/11 13:35:18;;;;;;;;;1.00;1.00;;;;;13.43;55.82;101438.03;5019200;28;45337;-77
2023/01/11 13:37:51;;;;;;;;;0.25;0.25;;;;;13.40;56.01;101450.75;5020037;28;45468;-78
2023/01/11 13:40:23;;;;;;;;;2.00;1.00;;;;;13.40;55.79;101445.38;5020737;28;45266;-79
2023/01/11 13:43:18;;;;;;;;;0.75;0.75;;;;;13.34;55.85;101438.47;5021519;28;46092;-78
2023/01/11 13:45:46;;;;;;;;;2.75;0.25;;;;;13.44;55.47;101438.91;5016030;28;45314;-77
2023/01/11 13:48:29;;;;;;;;;1.75;0.75;;;;;13.49;55.09;101436.88;5005758;28;45545;-79
2023/01/11 13:51:19;;;;;;;;;2.75;0.75;;;;;13.52;55.17;101447.50;5018318;28;45338;-78
2023/01/11 13:54:15;;;;;;;;;4.25;1.00;;;;;13.34;55.11;101432.19;5019400;28;45358;-79
2023/01/11 13:56:45;;;;;;;;;1.00;1.00;;;;;13.06;54.72;101409.19;4973484;28;45375;-79
2023/01/11 13:59:19;;;;;;;;;2.75;0.00;;;;;13.07;55.28;101424.41;5017938;28;45269;-79
2023/01/11 14:01:48;;;;;;;;;2.00;0.00;;;;;13.19;55.25;101437.31;5001095;28;46621;-78
2023/01/11 14:04:21;;;;;;;;;1.00;1.00;;;;;13.35;54.52;101453.69;5019424;28;46007;-78
2023/01/11 14:06:53;;;;;;;;;1.50;0.25;;;;;13.39;54.47;101473.25;5020542;28;45435;-81
2023/01/11 14:09:36;;;;;;;;;3.25;1.00;;;;;13.22;53.57;101479.41;5021722;28;45133;-78
2023/01/11 14:12:13;;;;;;;;;2.00;1.00;;;;;13.16;54.31;101464.41;5021713;28;45319;-79
2023/01/11 14:15:01;;;;;;;;;0.00;0.00;;;;;13.15;54.80;101472.53;5022012;28;46408;-78
2023/01/11 14:17:30;;;;;;;;;2.25;0.00;;;;;13.12;53.92;101465.44;5022610;28;45427;-78
2023/01/11 14:20:01;;;;;;;;;1.00;0.00;;;;;13.05;54.07;101466.66;5024080;28;45258;-79
2023/01/11 14:22:56;;;;;;;;;0.25;0.25;;;;;13.08;54.05;101462.97;5026195;28;44892;-79
2023/01/11 14:25:29;;;;;;;;;0.75;0.00;;;;;12.98;54.80;101422.13;5022171;28;45385;-79
2023/01/11 14:28:04;;;;;;;;;2.75;1.00;;;;;13.34;54.34;101451.06;5006480;28;45973;-77
2023/01/11 14:30:40;;;;;;;;;2.00;0.00;;;;;13.64;52.81;101458.56;5007201;28;45319;-77
2023/01/11 14:33:15;;;;;;;;;1.00;0.00;;;;;13.84;53.60;101454.94;5023792;28;45451;-78
2023/01/11 14:36:06;;;;;;;;;2.00;2.00;;;;;13.52;53.65;101421.44;5022161;28;45979;-78
2023/01/11 14:38:58;;;;;;;;;0.00;0.00;;;;;13.55;53.56;101440.13;5010471;28;45278;-79
2023/01/11 14:41:32;;;;;;;;;4.00;1.00;;;;;13.55;53.47;101460.81;5027791;28;45455;-78
2023/01/11 14:44:12;;;;;;;;;2.00;0.00;;;;;13.44;53.26;101466.69;5028327;28;45367;-80
2023/01/11 14:46:56;;;;;;;;;0.50;0.00;;;;;13.53;53.64;101473.47;5028631;28;45245;-79
2023/01/11 14:49:44;;;;;;;;;2.50;0.75;;;;;13.59;53.00;101478.59;5024964;28;44899;-78
2023/01/11 14:52:16;;;;;;;;;1.50;1.00;;;;;13.61;52.94;101479.38;5025795;28;45300;-78
2023/01/11 14:54:46;;;;;;;;;0.00;0.00;;;;;13.44;53.10;101461.31;5008894;28;46032;-79
2023/01/11 14:57:34;;;;;;;;;4.00;0.50;;;;;13.58;53.44;101463.38;5025918;28;45530;-79
2023/01/11 15:00:00;;;;;;;;;1.50;0.25;;;;;13.71;53.14;101472.63;5026567;28;45320;-81
2023/01/11 15:02:28;;;;;;;;;1.00;1.00;;;;;13.79;52.30;101454.25;5025639;28;45485;-79
2023/01/11 15:04:53;;;;;;;;;2.75;0.00;;;;;13.94;51.96;101483.19;5027849;28;45224;-80
2023/01/11 15:07:28;;;;;;;;;0.00;0.00;;;;;14.08;52.22;101484.34;5025844;28;46357;-79
2023/01/11 15:09:53;;;;;;;;;2.00;1.00;;;;;13.83;52.30;101455.88;5027339;28;45230;-78
2023/01/11 15:12:39;;;;;;;;;3.75;2.00;;;;;13.86;52.20;101466.53;5027817;28;44648;-79
2023/01/11 15:15:19;;;;;;;;;2.00;1.00;;;;;13.90;52.48;101476.19;5020025;28;46554;-75
2023/01/11 15:20:49;;;;;;;;;2.00;2.00;;;;;13.72;52.72;101465.41;5010453;28;45336;-75
2023/01/11 15:23:17;;;;;;;;;1.25;1.25;;;;;13.44;52.55;101477.47;5017939;28;45375;-84
2023/01/11 15:25:47;;;;;;;;;2.50;1.25;;;;;13.44;53.47;101484.69;5021958;28;45340;-78
2023/01/11 15:28:34;;;;;;;;;2.50;1.00;;;;;13.39;53.82;101489.41;5023242;28;48627;-79
2023/01/11 15:31:03;;;;;;;;;2.00;2.00;;;;;13.27;53.52;101483.63;5021134;28;45390;-79
2023/01/11 15:33:44;;;;;;;;;2.00;0.00;;;;;13.07;53.78;101480.06;5017140;28;45305;-77
2023/01/11 15:36:10;;;;;;;;;0.75;0.00;;;;;13.06;54.16;101503.41;5005546;28;45486;-81
2023/01/11 15:38:51;;;;;;;;;1.00;1.00;;;;;12.97;54.15;101503.81;4998165;28;48539;-80
2023/01/11 15:44:19;;;;;;;;;2.25;1.00;;;;;12.82;54.67;101505.34;5016080;28;45518;-78
2023/01/11 15:47:04;;;;;;;;;2.00;0.00;;;;;12.72;54.91;101500.44;4998632;28;47251;-84
2023/01/11 15:49:47;;;;;;;;;1.00;1.00;;;;;12.68;55.54;101496.97;4998405;28;48349;-80
2023/01/11 15:52:31;;;;;;;;;3.00;3.00;;;;;12.50;56.17;101498.63;5016323;28;45253;-80
2023/01/11 15:55:21;;;;;;;;;3.25;1.50;;;;;12.48;56.59;101492.47;4999622;28;45371;-81
2023/01/11 15:58:24;;;;;;;;;1.50;0.00;;;;;12.50;56.96;101495.09;5016308;28;45357;-80
2023/01/11 16:01:14;;;;;;;;;2.00;2.00;;;;;12.29;57.56;101478.03;5015796;28;45494;-80
2023/01/11 16:04:33;;;;;;;;;2.00;1.75;;;;;12.44;57.80;101496.22;5016381;28;45484;-80
2023/01/11 16:07:14;;;;;;;;;1.00;1.00;;;;;12.42;58.20;101494.50;4976495;28;45706;-81
2023/01/11 16:10:08;;;;;;;;;2.00;0.50;;;;;12.39;59.07;101511.66;5011611;28;45559;-76
2023/01/11 16:12:39;;;;;;;;;2.25;1.75;;;;;12.38;59.43;101512.59;4989766;28;47308;-78
2023/01/11 16:15:08;;;;;;;;;1.50;1.50;;;;;12.34;59.63;101516.34;4990019;28;45554;-77
2023/01/11 16:17:38;;;;;;;;;1.50;1.50;;;;;12.32;59.71;101517.38;5012272;28;45363;-79
2023/01/11 16:20:26;;;;;;;;;3.25;2.00;;;;;12.26;60.26;101526.53;4999022;28;47972;-79
2023/01/11 16:22:55;;;;;;;;;2.75;2.00;;;;;12.18;60.98;101535.84;5011770;28;45356;-77
2023/01/11 16:25:24;;;;;;;;;1.50;1.50;;;;;12.17;60.95;101543.03;5016889;28;45396;-79
2023/01/11 16:27:54;;;;;;;;;5.75;2.00;;;;;12.22;60.78;101546.44;5024323;28;45320;-78
2023/01/11 16:30:21;;;;;;;;;0.00;0.00;;;;;12.16;61.23;101535.94;5016683;28;45377;-80
2023/01/11 16:32:46;;;;;;;;;2.00;2.00;;;;;12.19;61.62;101554.59;5015226;28;46804;-79
2023/01/11 16:35:18;;;;;;;;;2.50;1.25;;;;;12.15;61.51;101541.38;5018083;28;45479;-79
2023/01/11 16:37:57;;;;;;;;;2.00;1.00;;;;;12.09;61.53;101551.41;5017840;28;45404;-78
2023/01/11 16:40:45;;;;;;;;;2.00;2.00;;;;;12.11;61.49;101552.22;5017941;28;45436;-76
2023/01/11 16:43:19;;;;;;;;;3.00;2.25;;;;;12.09;61.85;101539.78;5017799;28;46334;-77
2023/01/11 16:45:52;;;;;;;;;2.00;2.00;;;;;12.06;61.72;101539.91;5017777;28;45616;-76
2023/01/11 16:48:27;;;;;;;;;2.00;2.00;;;;;12.01;61.92;101532.00;4999216;28;45400;-78
2023/01/11 16:50:59;;;;;;;;;0.75;0.75;;;;;12.03;61.72;101546.28;5016668;28;45368;-78
2023/01/11 16:53:29;;;;;;;;;4.50;2.00;;;;;12.02;61.96;101544.53;5012795;28;46279;-78
2023/01/11 16:56:04;;;;;;;;;4.50;1.25;;;;;11.97;62.22;101546.53;5013730;28;45192;-80
2023/01/11 16:58:35;;;;;;;;;3.00;3.00;;;;;11.94;62.55;101541.25;5006044;28;45495;-79
2023/01/11 17:01:04;;;;;;;;;5.75;4.00;;;;;11.86;62.26;101547.84;5017793;28;45332;-80
2023/01/11 17:03:39;;;;;;;;;2.00;2.00;;;;;11.90;62.49;101557.56;5016628;28;45528;-81
2023/01/11 17:06:07;;;;;;;;;1.00;1.00;;;;;11.89;62.51;101564.75;5014362;28;45343;-80
2023/01/11 17:08:41;;;;;;;;;2.25;1.00;;;;;11.80;62.90;101559.72;5014812;28;45371;-80
2023/01/11 17:11:27;;;;;;;;;2.75;2.75;;;;;11.78;62.95;101564.28;5014512;28;45508;-78
2023/01/11 17:14:10;;;;;;;;;1.50;1.50;;;;;11.76;63.35;101558.06;5014257;28;45411;-78
2023/01/11 17:16:39;;;;;;;;;4.50;2.50;;;;;11.51;62.93;101517.81;5012830;28;45739;-81
2023/01/11 17:19:20;;;;;;;;;2.00;2.00;;;;;11.71;63.00;101546.59;5014511;28;45265;-80
2023/01/11 17:21:50;;;;;;;;;3.75;1.00;;;;;11.81;63.36;101560.59;5013058;28;45360;-78
2023/01/11 17:24:22;;;;;;;;;1.00;1.00;;;;;11.60;63.23;101524.63;5013691;28;46256;-78
2023/01/11 17:26:50;;;;;;;;;2.50;2.50;;;;;11.80;63.45;101558.84;5014135;28;45473;-80
2023/01/11 17:29:22;;;;;;;;;2.00;2.00;;;;;11.79;63.70;101562.47;5014224;28;45298;-78
2023/01/11 17:31:48;;;;;;;;;3.75;1.00;;;;;11.71;63.68;101554.66;5013960;28;46600;-78
2023/01/11 17:34:18;;;;;;;;;4.25;3.75;;;;;11.74;63.74;101565.28;4992140;28;47514;-79
2023/01/11 17:36:45;;;;;;;;;2.00;2.00;;;;;11.65;64.03;101561.13;5011063;28;45321;-80
2023/01/11 17:39:33;;;;;;;;;2.00;2.00;;;;;11.52;63.86;101551.78;5009422;28;45491;-80
2023/01/11 17:47:37;;;;;;;;;3.00;2.25;;;;;11.61;64.22;101575.63;5014243;28;45242;-77
2023/01/11 17:50:04;;;;;;;;;4.75;2.00;;;;;11.49;64.60;101568.00;5008851;28;45586;-79
2023/01/11 17:52:35;;;;;;;;;4.00;2.75;;;;;11.28;64.65;101533.88;5009227;28;45509;-79
2023/01/11 17:55:16;;;;;;;;;3.00;3.00;;;;;11.62;64.78;101566.63;5006405;28;46149;-80